Date,TemperatureHighF,TemperatureAvgF,TemperatureLowF,DewpointHighF,DewpointAvgF,DewpointLowF,HumidityHigh,HumidityAvg,HumidityLow,PressureMaxIn,PressureMinIn,WindSpeedMaxMPH,WindSpeedAvgMPH,GustSpeedMaxMPH,PrecipitationSumIn
2013-9-1,92,77,62,56,50,45,66,42,20,30.19,29.97,28,4,28,0.00
2013-9-2,91,77,63,58,50,40,82,45,17,30.22,30.02,20,5,20,0.00
2013-9-3,92,76,67,56,50,44,64,43,19,30.22,30.06,17,5,19,0.00
2013-9-4,94,78,60,57,50,39,85,44,16,30.26,30.06,13,4,13,0.00
2013-9-5,92,79,65,47,37,22,48,25,10,30.26,30.08,20,6,21,0.00
2013-9-6,93,77,60,41,36,28,49,25,11,30.26,30.02,19,5,19,0.00
2013-9-7,92,76,60,49,40,28,51,30,11,30.19,29.98,20,5,20,0.00
2013-9-8,88,72,63,55,49,43,76,47,22,30.15,29.94,19,5,32,0.00
2013-9-9,85,68,58,61,53,45,100,65,27,30.09,29.89,39,4,39,1.04
2013-9-10,65,60,58,63,60,58,100,98,77,30.14,30.04,14,6,18,0.67
2013-9-11,81,68,57,61,53,42,100,66,27,30.18,30.06,11,3,14,0.00
2013-9-12,76,63,56,67,56,48,100,80,44,30.21,30.05,19,7,23,0.67
2013-9-13,75,63,54,59,55,52,100,78,46,30.16,29.99,17,6,20,0.12
2013-9-14,77,65,57,59,54,48,100,72,37,30.12,29.96,17,6,22,0.01
2013-9-15,81,65,55,58,51,44,100,65,28,30.18,30.04,13,6,17,0.00
2013-9-16,84,68,55,54,50,45,88,57,27,30.24,30.05,17,5,17,0.00
2013-9-17,83,70,58,54,50,42,84,53,25,30.17,29.94,19,6,20,0.00
2013-9-18,77,66,58,64,55,48,100,68,39,30.08,29.92,21,7,22,0.25
2013-9-19,80,65,51,53,44,23,100,55,13,30.10,29.99,13,4,18,0.25
2013-9-20,84,66,48,46,40,27,91,45,13,30.18,30.00,15,4,15,0.00
2013-9-21,83,67,54,51,44,37,72,46,20,30.14,29.94,17,6,17,0.00
2013-9-22,76,60,47,59,50,37,100,72,32,30.64,29.68,35,7,41,0.41
2013-9-23,68,55,43,41,38,32,86,55,29,30.20,29.95,30,6,30,0.00
2013-9-24,78,58,40,42,37,29,100,53,20,30.26,30.02,12,4,12,0.00
2013-9-25,81,64,46,39,31,20,67,35,13,30.06,29.73,33,9,33,0.00
2013-9-26,77,66,58,33,24,15,32,21,11,29.92,29.77,30,9,35,0.00
2013-9-27,65,52,40,47,34,17,100,57,21,30.18,29.85,28,5,28,0.07
2013-9-28,65,48,32,34,26,16,100,51,17,30.30,30.18,12,3,14,0.00
2013-9-29,72,53,34,33,27,14,92,45,11,30.32,30.11,10,4,16,0.00
2013-9-30,77,58,39,32,27,18,69,36,11,30.18,29.98,15,4,17,0.00